^^
Datos históricos de la estación: Murcia-Puente Tocinos
Diario Informe para Marzo 14, 2018 Unidades:  Ambas    Inglés   Métrico
Diario Semanal Mensual Anual Configurable
  Máximo: Mínimo: Media:
Temperatura: 72 °F /  22.2 °C 53.1 °F /  11.7 °C 63.5 °F /  17.5 °C
Punto de rocio: 51.8 °F /  11.0 °C 42.6 °F /  5.9 °C 46.8 °F /  8.2 °C
Humedad: 69% 41% 55%
Velocidad viento: 11.8mph /  19.0km/h - 4.7mph /  7.6km/h
Racha viento: 21.9mph /  35.2km/h - -
Viento- - South
Presión: 30 in /  1014.8 hPa 29.6 in /  1001.6 hPa -
Precipitación: 0 in /  0.0 mm    
Historical Graphs
 
 
Tabla de datos para Marzo 14, 2018
Hora Temperatura Punto de rocio Presión Viento Velocidad viento Racha viento Humedad Intensidad lluvia(por hora) Nubes
00:00 63.7 °F /  17.6 °C 47.1 °F /  8.4 °C 30in /  1014.8hPa SW 2.9mph /  4.7km/h 2.9mph /  4.7km/h 55% 0in /  0.0mm FEW
00:05 63.7 °F /  17.6 °C 47.1 °F /  8.4 °C 30in /  1014.8hPa SW 1.4mph /  2.3km/h   55% 0in /  0.0mm FEW
00:10 63.7 °F /  17.6 °C 47.1 °F /  8.4 °C 30in /  1014.8hPa SW 1.4mph /  2.3km/h 3.5mph /  5.6km/h 55% 0in /  0.0mm FEW
00:15 63.3 °F /  17.4 °C 47.3 °F /  8.5 °C 30in /  1014.8hPa ESE 2.4mph /  3.9km/h 5.8mph /  9.3km/h 56% 0in /  0.0mm SCT
00:20 63 °F /  17.2 °C 47.5 °F /  8.6 °C 30in /  1014.8hPa ESE 2.4mph /  3.9km/h 3.5mph /  5.6km/h 57% 0in /  0.0mm CLR
00:25 62.4 °F /  16.9 °C 47.5 °F /  8.6 °C 30in /  1014.8hPa ESE 2mph /  3.2km/h 2.4mph /  3.9km/h 58% 0in /  0.0mm SCT
00:30 62.2 °F /  16.8 °C 47.3 °F /  8.5 °C 30in /  1014.8hPa East 2mph /  3.2km/h 3.5mph /  5.6km/h 58% 0in /  0.0mm CLR
00:35 61.9 °F /  16.6 °C 47.5 °F /  8.6 °C 30in /  1014.8hPa East 2mph /  3.2km/h 2mph /  3.2km/h 59% 0in /  0.0mm SCT
00:40 61.7 °F /  16.5 °C 47.1 °F /  8.4 °C 30in /  1014.8hPa East 2mph /  3.2km/h 2.3mph /  3.7km/h 59% 0in /  0.0mm CLR
00:45 61.5 °F /  16.4 °C 47.5 °F /  8.6 °C 30in /  1014.8hPa East 1.4mph /  2.3km/h 2.3mph /  3.7km/h 60% 0in /  0.0mm SCT
00:50 61.5 °F /  16.4 °C 47.5 °F /  8.6 °C 30in /  1014.4hPa East 1.4mph /  2.3km/h   60% 0in /  0.0mm CLR
00:55 61.5 °F /  16.4 °C 47.5 °F /  8.6 °C 30in /  1014.4hPa Calm   2.4mph /  3.9km/h 60% 0in /  0.0mm SCT
01:00 61.3 °F /  16.3 °C 47.8 °F /  8.8 °C 30in /  1014.4hPa Calm   3.5mph /  5.6km/h 61% 0in /  0.0mm SCT
01:05 61.5 °F /  16.4 °C 48.4 °F /  9.1 °C 29.9in /  1014.1hPa SSE 2.4mph /  3.9km/h 4.6mph /  7.4km/h 62% 0in /  0.0mm SCT
01:10 61.3 °F /  16.3 °C 48.2 °F /  9.0 °C 29.9in /  1014.1hPa SSE 2.4mph /  3.9km/h 4.6mph /  7.4km/h 62% 0in /  0.0mm CLR
01:15 61.2 °F /  16.2 °C 48.6 °F /  9.2 °C 29.9in /  1014.1hPa SSE 2.9mph /  4.7km/h 4.6mph /  7.4km/h 63% 0in /  0.0mm FEW
01:20 61 °F /  16.1 °C 48.4 °F /  9.1 °C 29.9in /  1014.1hPa SE 2.9mph /  4.7km/h 4.6mph /  7.4km/h 63% 0in /  0.0mm FEW
01:25 60.8 °F /  16.0 °C 47.7 °F /  8.7 °C 29.9in /  1014.1hPa SSE 3.1mph /  5.0km/h 5.2mph /  8.4km/h 62% 0in /  0.0mm FEW
01:30 60.6 °F /  15.9 °C 47.8 °F /  8.8 °C 29.9in /  1014.1hPa SSE 3.1mph /  5.0km/h 3.6mph /  5.8km/h 63% 0in /  0.0mm FEW
01:35 60.4 °F /  15.8 °C 47.8 °F /  8.8 °C 29.9in /  1014.1hPa SSE 2.9mph /  4.7km/h 4.6mph /  7.4km/h 63% 0in /  0.0mm FEW
01:40 60.4 °F /  15.8 °C 47.5 °F /  8.6 °C 29.9in /  1014.1hPa ESE 2.9mph /  4.7km/h 4.3mph /  6.9km/h 62% 0in /  0.0mm FEW
01:45 60.3 °F /  15.7 °C 46.8 °F /  8.2 °C 29.9in /  1014.1hPa SE 3.1mph /  5.0km/h 4.6mph /  7.4km/h 61% 0in /  0.0mm FEW
01:50 60.3 °F /  15.7 °C 47.1 °F /  8.4 °C 29.9in /  1014.1hPa South 3.1mph /  5.0km/h 5.8mph /  9.3km/h 62% 0in /  0.0mm FEW
01:55 60.4 °F /  15.8 °C 46.9 °F /  8.3 °C 29.9in /  1014.1hPa South 3.6mph /  5.8km/h 4.6mph /  7.4km/h 61% 0in /  0.0mm FEW
02:00 60.6 °F /  15.9 °C 46.8 °F /  8.2 °C 29.9in /  1014.1hPa WSW 3.6mph /  5.8km/h 5.8mph /  9.3km/h 60% 0in /  0.0mm FEW
02:05 61 °F /  16.1 °C 46.9 °F /  8.3 °C 29.9in /  1013.8hPa WSW 3.6mph /  5.8km/h 4.6mph /  7.4km/h 60% 0in /  0.0mm FEW
02:10 61 °F /  16.1 °C 46.6 °F /  8.1 °C 29.9in /  1013.8hPa WSW 3.6mph /  5.8km/h 4.6mph /  7.4km/h 59% 0in /  0.0mm FEW
02:15 61 °F /  16.1 °C 46.6 °F /  8.1 °C 29.9in /  1013.8hPa WSW 2.9mph /  4.7km/h 2.9mph /  4.7km/h 59% 0in /  0.0mm CLR
02:20 61 °F /  16.1 °C 46.6 °F /  8.1 °C 29.9in /  1013.4hPa WSW 2.9mph /  4.7km/h 3.5mph /  5.6km/h 59% 0in /  0.0mm CLR
02:25 61 °F /  16.1 °C 46.6 °F /  8.1 °C 29.9in /  1013.4hPa WSW 2mph /  3.2km/h 2.3mph /  3.7km/h 59% 0in /  0.0mm CLR
02:30 60.8 °F /  16.0 °C 46.8 °F /  8.2 °C 29.9in /  1013.4hPa WSW 2mph /  3.2km/h   60% 0in /  0.0mm CLR
02:35 60.6 °F /  15.9 °C 47.1 °F /  8.4 °C 29.9in /  1013.8hPa Calm   2.3mph /  3.7km/h 61% 0in /  0.0mm CLR
02:40 60.4 °F /  15.8 °C 46.9 °F /  8.3 °C 29.9in /  1013.8hPa Calm   1.8mph /  2.9km/h 61% 0in /  0.0mm CLR
02:45 60.1 °F /  15.6 °C 46.9 °F /  8.3 °C 29.9in /  1013.8hPa Calm     62% 0in /  0.0mm CLR
02:50 59.7 °F /  15.4 °C 46.8 °F /  8.2 °C 29.9in /  1013.4hPa Calm   2.9mph /  4.7km/h 62% 0in /  0.0mm CLR
02:55 59.4 °F /  15.2 °C 46.8 °F /  8.2 °C 29.9in /  1013.4hPa South 2mph /  3.2km/h 4.6mph /  7.4km/h 63% 0in /  0.0mm CLR
03:00 59.2 °F /  15.1 °C 46.6 °F /  8.1 °C 29.9in /  1013.4hPa South 2mph /  3.2km/h 6.9mph /  11.1km/h 63% 0in /  0.0mm CLR
03:05 59 °F /  15.0 °C 46.4 °F /  8.0 °C 29.9in /  1013.4hPa South 4.7mph /  7.6km/h 8.1mph /  13.0km/h 63% 0in /  0.0mm CLR
03:10 58.8 °F /  14.9 °C 46.2 °F /  7.9 °C 29.9in /  1013.4hPa SSW 4.7mph /  7.6km/h 5.8mph /  9.3km/h 63% 0in /  0.0mm CLR
03:15 58.8 °F /  14.9 °C 46.2 °F /  7.9 °C 29.9in /  1013.4hPa WSW 4mph /  6.4km/h 4.6mph /  7.4km/h 63% 0in /  0.0mm CLR
03:20 58.8 °F /  14.9 °C 46.2 °F /  7.9 °C 29.9in /  1013.4hPa SW 4mph /  6.4km/h 4.6mph /  7.4km/h 63% 0in /  0.0mm CLR
03:25 58.6 °F /  14.8 °C 46 °F /  7.8 °C 29.9in /  1013.4hPa SSW 2.4mph /  3.9km/h 4.6mph /  7.4km/h 63% 0in /  0.0mm CLR
03:30 58.6 °F /  14.8 °C 45.7 °F /  7.6 °C 29.9in /  1013.4hPa SSW 2.4mph /  3.9km/h 4.6mph /  7.4km/h 62% 0in /  0.0mm CLR
03:35 58.6 °F /  14.8 °C 45.1 °F /  7.3 °C 29.9in /  1013.8hPa WSW 3.6mph /  5.8km/h 5.8mph /  9.3km/h 61% 0in /  0.0mm CLR
03:40 58.6 °F /  14.8 °C 44.8 °F /  7.1 °C 29.9in /  1013.8hPa South 3.6mph /  5.8km/h 4.6mph /  7.4km/h 60% 0in /  0.0mm CLR
03:45 58.6 °F /  14.8 °C 44.8 °F /  7.1 °C 29.9in /  1013.8hPa WNW 3.1mph /  5.0km/h 5.8mph /  9.3km/h 60% 0in /  0.0mm CLR
03:50 58.5 °F /  14.7 °C 44.6 °F /  7.0 °C 29.9in /  1013.4hPa WSW 3.1mph /  5.0km/h 3.6mph /  5.8km/h 60% 0in /  0.0mm CLR
03:55 58.3 °F /  14.6 °C 45 °F /  7.2 °C 29.9in /  1013.4hPa NW 2.4mph /  3.9km/h 4.6mph /  7.4km/h 61% 0in /  0.0mm CLR
04:00 57.9 °F /  14.4 °C 43.7 °F /  6.5 °C 29.9in /  1013.4hPa SSW 2.4mph /  3.9km/h 5.8mph /  9.3km/h 59% 0in /  0.0mm CLR
04:05 57.9 °F /  14.4 °C 45 °F /  7.2 °C 29.9in /  1013.1hPa NNE 3.1mph /  5.0km/h 5.8mph /  9.3km/h 62% 0in /  0.0mm CLR
04:10 57.4 °F /  14.1 °C 45 °F /  7.2 °C 29.9in /  1013.1hPa East 3.1mph /  5.0km/h 4.6mph /  7.4km/h 63% 0in /  0.0mm CLR
04:15 57 °F /  13.9 °C 44.1 °F /  6.7 °C 29.9in /  1013.1hPa SSE 2.9mph /  4.7km/h 4.7mph /  7.6km/h 62% 0in /  0.0mm CLR
04:20 57 °F /  13.9 °C 45 °F /  7.2 °C 29.9in /  1013.1hPa NW 2.9mph /  4.7km/h 3.5mph /  5.6km/h 64% 0in /  0.0mm CLR
04:25 57 °F /  13.9 °C 44.4 °F /  6.9 °C 29.9in /  1013.1hPa SSE 2.9mph /  4.7km/h 4.6mph /  7.4km/h 63% 0in /  0.0mm CLR
04:30 56.8 °F /  13.8 °C 44.4 °F /  6.9 °C 29.9in /  1013.1hPa SSE 2.9mph /  4.7km/h 4.6mph /  7.4km/h 63% 0in /  0.0mm CLR
04:35 56.7 °F /  13.7 °C 44.2 °F /  6.8 °C 29.9in /  1012.8hPa SSE 2mph /  3.2km/h 3.5mph /  5.6km/h 63% 0in /  0.0mm CLR
04:40 56.5 °F /  13.6 °C 44.1 °F /  6.7 °C 29.9in /  1012.8hPa SSE 2mph /  3.2km/h 2.3mph /  3.7km/h 63% 0in /  0.0mm CLR
04:45 56.3 °F /  13.5 °C 43.9 °F /  6.6 °C 29.9in /  1012.8hPa SSE 2mph /  3.2km/h 4.6mph /  7.4km/h 63% 0in /  0.0mm CLR
04:50 56.3 °F /  13.5 °C 43.9 °F /  6.6 °C 29.9in /  1012.8hPa South 2mph /  3.2km/h 4.6mph /  7.4km/h 63% 0in /  0.0mm CLR
04:55 56.3 °F /  13.5 °C 43.9 °F /  6.6 °C 29.9in /  1012.8hPa SSW 2.9mph /  4.7km/h 4mph /  6.4km/h 63% 0in /  0.0mm CLR
05:00 56.5 °F /  13.6 °C 44.1 °F /  6.7 °C 29.9in /  1012.8hPa WSW 2.9mph /  4.7km/h 4.6mph /  7.4km/h 63% 0in /  0.0mm CLR
05:05 56.5 °F /  13.6 °C 43.5 °F /  6.4 °C 29.9in /  1012.8hPa WSW 3.1mph /  5.0km/h 4.6mph /  7.4km/h 62% 0in /  0.0mm CLR
05:10 56.5 °F /  13.6 °C 43.5 °F /  6.4 °C 29.9in /  1012.8hPa WSW 3.1mph /  5.0km/h 4.6mph /  7.4km/h 62% 0in /  0.0mm CLR
05:15 56.5 °F /  13.6 °C 43.2 °F /  6.2 °C 29.9in /  1012.8hPa SSW 3.1mph /  5.0km/h 5.8mph /  9.3km/h 61% 0in /  0.0mm CLR
05:20 56.7 °F /  13.7 °C 43.3 °F /  6.3 °C 29.9in /  1012.8hPa SSW 3.1mph /  5.0km/h 4.6mph /  7.4km/h 61% 0in /  0.0mm CLR
05:25 56.7 °F /  13.7 °C 43 °F /  6.1 °C 29.9in /  1012.8hPa SSW 3.6mph /  5.8km/h 4.6mph /  7.4km/h 60% 0in /  0.0mm CLR
05:30 56.8 °F /  13.8 °C 43.2 °F /  6.2 °C 29.9in /  1012.8hPa SSW 3.6mph /  5.8km/h 4.6mph /  7.4km/h 60% 0in /  0.0mm CLR
05:35 56.8 °F /  13.8 °C 43.2 °F /  6.2 °C 29.9in /  1012.8hPa SSW 2.9mph /  4.7km/h 3.5mph /  5.6km/h 60% 0in /  0.0mm CLR
05:40 56.8 °F /  13.8 °C 43.2 °F /  6.2 °C 29.9in /  1012.8hPa South 2.9mph /  4.7km/h 4.7mph /  7.6km/h 60% 0in /  0.0mm CLR
05:45 56.7 °F /  13.7 °C 43 °F /  6.1 °C 29.9in /  1012.8hPa South 2.9mph /  4.7km/h 4.6mph /  7.4km/h 60% 0in /  0.0mm CLR
05:51 56.5 °F /  13.6 °C 43.2 °F /  6.2 °C 29.9in /  1012.8hPa South 2.9mph /  4.7km/h 4.7mph /  7.6km/h 61% 0in /  0.0mm CLR
05:56 56.1 °F /  13.4 °C 43.3 °F /  6.3 °C 29.9in /  1012.8hPa ESE 2.9mph /  4.7km/h 4.6mph /  7.4km/h 62% 0in /  0.0mm CLR
06:01 55.4 °F /  13.0 °C 43 °F /  6.1 °C 29.9in /  1012.8hPa SE 2.9mph /  4.7km/h 4.6mph /  7.4km/h 63% 0in /  0.0mm CLR
06:06 54.7 °F /  12.6 °C 43.2 °F /  6.2 °C 29.9in /  1012.8hPa South 3.1mph /  5.0km/h 4.7mph /  7.6km/h 65% 0in /  0.0mm CLR
06:11 54 °F /  12.2 °C 43 °F /  6.1 °C 29.9in /  1012.8hPa South 3.1mph /  5.0km/h 4.6mph /  7.4km/h 66% 0in /  0.0mm CLR
06:16 53.8 °F /  12.1 °C 43.2 °F /  6.2 °C 29.9in /  1012.8hPa South 2.9mph /  4.7km/h 2.9mph /  4.7km/h 67% 0in /  0.0mm CLR
06:21 53.8 °F /  12.1 °C 43.2 °F /  6.2 °C 29.9in /  1012.8hPa South 2.9mph /  4.7km/h   67% 0in /  0.0mm CLR
06:26 54 °F /  12.2 °C 43.2 °F /  6.2 °C 29.9in /  1012.8hPa Calm   2.4mph /  3.9km/h 67% 0in /  0.0mm CLR
06:31 54 °F /  12.2 °C 43.2 °F /  6.2 °C 29.9in /  1012.8hPa Calm   4.6mph /  7.4km/h 67% 0in /  0.0mm CLR
06:36 54.1 °F /  12.3 °C 43 °F /  6.1 °C 29.9in /  1012.8hPa WSW 2.9mph /  4.7km/h 4.6mph /  7.4km/h 66% 0in /  0.0mm CLR
06:41 54.3 °F /  12.4 °C 42.8 °F /  6.0 °C 29.9in /  1012.8hPa WSW 2.9mph /  4.7km/h 2.9mph /  4.7km/h 65% 0in /  0.0mm CLR
06:46 54.3 °F /  12.4 °C 42.8 °F /  6.0 °C 29.9in /  1012.8hPa WSW 1.8mph /  2.9km/h 2.3mph /  3.7km/h 65% 0in /  0.0mm CLR
06:51 54.3 °F /  12.4 °C 43.2 °F /  6.2 °C 29.9in /  1012.8hPa WSW 1.8mph /  2.9km/h 2.4mph /  3.9km/h 66% 0in /  0.0mm CLR
06:56 54.3 °F /  12.4 °C 43.2 °F /  6.2 °C 29.9in /  1012.8hPa WSW 2mph /  3.2km/h 4.6mph /  7.4km/h 66% 0in /  0.0mm CLR
07:01 54 °F /  12.2 °C 43 °F /  6.1 °C 29.9in /  1012.8hPa SSE 2mph /  3.2km/h 5.8mph /  9.3km/h 66% 0in /  0.0mm CLR
07:06 53.2 °F /  11.8 °C 42.6 °F /  5.9 °C 29.9in /  1012.8hPa South 3.6mph /  5.8km/h 4.6mph /  7.4km/h 67% 0in /  0.0mm CLR
07:11 53.2 °F /  11.8 °C 43 °F /  6.1 °C 29.9in /  1012.8hPa South 3.6mph /  5.8km/h 4.6mph /  7.4km/h 68% 0in /  0.0mm CLR
07:16 53.2 °F /  11.8 °C 43 °F /  6.1 °C 29.9in /  1012.8hPa SE 3.1mph /  5.0km/h 5.8mph /  9.3km/h 68% 0in /  0.0mm SCT
07:21 53.2 °F /  11.8 °C 43 °F /  6.1 °C 29.9in /  1012.8hPa ESE 3.1mph /  5.0km/h 3.5mph /  5.6km/h 68% 0in /  0.0mm SCT
07:26 53.1 °F /  11.7 °C 42.8 °F /  6.0 °C 29.9in /  1012.8hPa SSW 3.1mph /  5.0km/h 4.6mph /  7.4km/h 68% 0in /  0.0mm SCT
07:31 53.2 °F /  11.8 °C 43 °F /  6.1 °C 29.9in /  1012.8hPa WSW 3.1mph /  5.0km/h 4.6mph /  7.4km/h 68% 0in /  0.0mm SCT
07:36 53.4 °F /  11.9 °C 42.6 °F /  5.9 °C 29.9in /  1013.1hPa WSW 2mph /  3.2km/h 2.3mph /  3.7km/h 67% 0in /  0.0mm SCT
07:41 54 °F /  12.2 °C 43.2 °F /  6.2 °C 29.9in /  1013.1hPa East 2mph /  3.2km/h 4.6mph /  7.4km/h 67% 0in /  0.0mm SCT
07:46 54 °F /  12.2 °C 43 °F /  6.1 °C 29.9in /  1013.1hPa ESE 1.8mph /  2.9km/h 2.4mph /  3.9km/h 66% 0in /  0.0mm SCT
07:51 53.8 °F /  12.1 °C 43.2 °F /  6.2 °C 29.9in /  1012.8hPa ESE 1.8mph /  2.9km/h 2.3mph /  3.7km/h 67% 0in /  0.0mm SCT
07:56 54 °F /  12.2 °C 43.5 °F /  6.4 °C 29.9in /  1012.8hPa ESE 1.4mph /  2.3km/h 2.3mph /  3.7km/h 68% 0in /  0.0mm SCT
08:01 54 °F /  12.2 °C 43.2 °F /  6.2 °C 29.9in /  1012.8hPa ESE 1.4mph /  2.3km/h 3.5mph /  5.6km/h 67% 0in /  0.0mm SCT
08:06 53.8 °F /  12.1 °C 43.2 °F /  6.2 °C 29.9in /  1012.8hPa South 2.4mph /  3.9km/h 4.6mph /  7.4km/h 67% 0in /  0.0mm SCT
08:11 53.6 °F /  12.0 °C 43 °F /  6.1 °C 29.9in /  1012.8hPa SSW 2.4mph /  3.9km/h 4.6mph /  7.4km/h 67% 0in /  0.0mm SCT
08:16 53.6 °F /  12.0 °C 43 °F /  6.1 °C 29.9in /  1012.8hPa SW 3.6mph /  5.8km/h 4.6mph /  7.4km/h 67% 0in /  0.0mm SCT
08:21 53.8 °F /  12.1 °C 43.2 °F /  6.2 °C 29.9in /  1013.1hPa SE 3.6mph /  5.8km/h 4.6mph /  7.4km/h 67% 0in /  0.0mm SCT
08:26 54 °F /  12.2 °C 43.2 °F /  6.2 °C 29.9in /  1013.1hPa SSE 3.6mph /  5.8km/h 6.9mph /  11.1km/h 67% 0in /  0.0mm SCT
08:31 53.4 °F /  11.9 °C 43.5 °F /  6.4 °C 29.9in /  1013.1hPa South 3.6mph /  5.8km/h 4.6mph /  7.4km/h 69% 0in /  0.0mm SCT
08:36 53.6 °F /  12.0 °C 43.7 °F /  6.5 °C 29.9in /  1013.4hPa SSW 4.3mph /  6.9km/h 4.6mph /  7.4km/h 69% 0in /  0.0mm SCT
08:41 53.6 °F /  12.0 °C 43.3 °F /  6.3 °C 29.9in /  1013.4hPa South 4.3mph /  6.9km/h 6.9mph /  11.1km/h 68% 0in /  0.0mm SCT
08:46 53.6 °F /  12.0 °C 43.7 °F /  6.5 °C 29.9in /  1013.4hPa SSE 4.3mph /  6.9km/h 6.9mph /  11.1km/h 69% 0in /  0.0mm SCT
08:51 53.4 °F /  11.9 °C 43.5 °F /  6.4 °C 29.9in /  1013.4hPa SSE 4.3mph /  6.9km/h 9.2mph /  14.8km/h 69% 0in /  0.0mm SCT
08:56 53.2 °F /  11.8 °C 43.3 °F /  6.3 °C 29.9in /  1013.4hPa SSE 5.9mph /  9.5km/h 8.1mph /  13.0km/h 69% 0in /  0.0mm SCT
09:01 53.6 °F /  12.0 °C 43.3 °F /  6.3 °C 29.9in /  1013.4hPa SSE 5.9mph /  9.5km/h 9.2mph /  14.8km/h 68% 0in /  0.0mm SCT
09:06 54 °F /  12.2 °C 43.2 °F /  6.2 °C 29.9in /  1013.4hPa SSE 6.2mph /  10.0km/h 6.9mph /  11.1km/h 67% 0in /  0.0mm SCT
09:11 54.7 °F /  12.6 °C 43.5 °F /  6.4 °C 29.9in /  1013.4hPa SSW 6.2mph /  10.0km/h 6.9mph /  11.1km/h 66% 0in /  0.0mm SCT
09:16 55.2 °F /  12.9 °C 43.7 °F /  6.5 °C 29.9in /  1013.4hPa SSW 4.7mph /  7.6km/h 5.8mph /  9.3km/h 65% 0in /  0.0mm CLR
09:21 55.9 °F /  13.3 °C 43.9 °F /  6.6 °C 29.9in /  1013.4hPa SSW 4.7mph /  7.6km/h 5.8mph /  9.3km/h 64% 0in /  0.0mm CLR
09:26 56.7 °F /  13.7 °C 44.2 °F /  6.8 °C 29.9in /  1013.4hPa South 4.3mph /  6.9km/h 4.6mph /  7.4km/h 63% 0in /  0.0mm CLR
09:31 57 °F /  13.9 °C 44.1 °F /  6.7 °C 29.9in /  1013.4hPa WSW 4.3mph /  6.9km/h 4.6mph /  7.4km/h 62% 0in /  0.0mm CLR
09:36 57.6 °F /  14.2 °C 44.2 °F /  6.8 °C 29.9in /  1013.4hPa SW 3.1mph /  5.0km/h 4.6mph /  7.4km/h 61% 0in /  0.0mm CLR
09:41 58.1 °F /  14.5 °C 44.2 °F /  6.8 °C 29.9in /  1013.4hPa SW 3.1mph /  5.0km/h 4.6mph /  7.4km/h 60% 0in /  0.0mm CLR
09:46 58.6 °F /  14.8 °C 44.2 °F /  6.8 °C 29.9in /  1013.4hPa SSW 2.9mph /  4.7km/h 6.9mph /  11.1km/h 59% 0in /  0.0mm CLR
09:51 59.2 °F /  15.1 °C 45 °F /  7.2 °C 29.9in /  1013.4hPa SW 2.9mph /  4.7km/h 4.6mph /  7.4km/h 59% 0in /  0.0mm CLR
09:56 59.7 °F /  15.4 °C 44.4 °F /  6.9 °C 29.9in /  1013.4hPa WSW 2.9mph /  4.7km/h 4.6mph /  7.4km/h 57% 0in /  0.0mm CLR
10:01 60.3 °F /  15.7 °C 44.4 °F /  6.9 °C 29.9in /  1013.4hPa WSW 2.9mph /  4.7km/h 4.6mph /  7.4km/h 56% 0in /  0.0mm CLR
10:06 60.6 °F /  15.9 °C 44.8 °F /  7.1 °C 29.9in /  1013.1hPa West 2.4mph /  3.9km/h 3.1mph /  5.0km/h 56% 0in /  0.0mm CLR
10:11 61.2 °F /  16.2 °C 45 °F /  7.2 °C 29.9in /  1013.1hPa West 2.4mph /  3.9km/h 2.4mph /  3.9km/h 55% 0in /  0.0mm CLR
10:16 61.3 °F /  16.3 °C 45 °F /  7.2 °C 29.9in /  1013.1hPa West 1.8mph /  2.9km/h 4.6mph /  7.4km/h 55% 0in /  0.0mm FEW
10:21 61.5 °F /  16.4 °C 45.1 °F /  7.3 °C 29.9in /  1012.8hPa West 1.8mph /  2.9km/h 4.6mph /  7.4km/h 55% 0in /  0.0mm FEW
10:26 61.5 °F /  16.4 °C 45.1 °F /  7.3 °C 29.9in /  1012.8hPa WSW 2.4mph /  3.9km/h 2.4mph /  3.9km/h 55% 0in /  0.0mm FEW
10:31 62.1 °F /  16.7 °C 45.7 °F /  7.6 °C 29.9in /  1012.8hPa WSW 2.4mph /  3.9km/h 3.5mph /  5.6km/h 55% 0in /  0.0mm FEW
10:36 62.4 °F /  16.9 °C 45.1 °F /  7.3 °C 29.9in /  1012.8hPa WSW 2mph /  3.2km/h 3.5mph /  5.6km/h 53% 0in /  0.0mm FEW
10:41 62.8 °F /  17.1 °C 45.3 °F /  7.4 °C 29.9in /  1012.8hPa West 2mph /  3.2km/h 4.6mph /  7.4km/h 53% 0in /  0.0mm FEW
10:46 63 °F /  17.2 °C 45.7 °F /  7.6 °C 29.9in /  1012.8hPa West 2mph /  3.2km/h 3.5mph /  5.6km/h 53% 0in /  0.0mm FEW
10:51 63.1 °F /  17.3 °C 45.7 °F /  7.6 °C 29.9in /  1012.4hPa West 2mph /  3.2km/h 5.4mph /  8.7km/h 53% 0in /  0.0mm FEW
10:56 63.3 °F /  17.4 °C 45.9 °F /  7.7 °C 29.9in /  1012.4hPa WSW 2.4mph /  3.9km/h 4.6mph /  7.4km/h 53% 0in /  0.0mm FEW
11:01 63.7 °F /  17.6 °C 46.2 °F /  7.9 °C 29.9in /  1012.4hPa WNW 2.4mph /  3.9km/h 3.6mph /  5.8km/h 53% 0in /  0.0mm FEW
11:06 64 °F /  17.8 °C 46 °F /  7.8 °C 29.9in /  1012.1hPa WNW 2mph /  3.2km/h 3.5mph /  5.6km/h 52% 0in /  0.0mm FEW
11:11 64.2 °F /  17.9 °C 46.2 °F /  7.9 °C 29.9in /  1012.1hPa WNW 2mph /  3.2km/h 2.3mph /  3.7km/h 52% 0in /  0.0mm FEW
11:16 64.9 °F /  18.3 °C 46.4 °F /  8.0 °C 29.9in /  1012.1hPa WNW 1.8mph /  2.9km/h 3.5mph /  5.6km/h 51% 0in /  0.0mm FEW
11:21 65.5 °F /  18.6 °C 46.2 °F /  7.9 °C 29.9in /  1011.7hPa West 1.8mph /  2.9km/h 2.3mph /  3.7km/h 50% 0in /  0.0mm FEW
11:26 66 °F /  18.9 °C 45.9 °F /  7.7 °C 29.9in /  1011.7hPa West 1.4mph /  2.3km/h 3.5mph /  5.6km/h 48% 0in /  0.0mm FEW
11:31 66.2 °F /  19.0 °C 45.9 °F /  7.7 °C 29.9in /  1011.7hPa West 1.4mph /  2.3km/h 2.3mph /  3.7km/h 48% 0in /  0.0mm FEW
11:36 66.4 °F /  19.1 °C 46 °F /  7.8 °C 29.9in /  1011.1hPa WNW 2mph /  3.2km/h 2.3mph /  3.7km/h 48% 0in /  0.0mm FEW
11:41 66.4 °F /  19.1 °C 45.5 °F /  7.5 °C 29.9in /  1011.1hPa NW 2mph /  3.2km/h 4.6mph /  7.4km/h 47% 0in /  0.0mm FEW
11:46 66.4 °F /  19.1 °C 45.5 °F /  7.5 °C 29.9in /  1011.1hPa WNW 2mph /  3.2km/h 4.6mph /  7.4km/h 47% 0in /  0.0mm FEW
11:51 66.6 °F /  19.2 °C 45.7 °F /  7.6 °C 29.9in /  1011.1hPa WSW 2mph /  3.2km/h 4.6mph /  7.4km/h 47% 0in /  0.0mm FEW
11:56 66.7 °F /  19.3 °C 45.9 °F /  7.7 °C 29.9in /  1011.1hPa WSW 2.4mph /  3.9km/h 4mph /  6.4km/h 47% 0in /  0.0mm FEW
12:01 67.3 °F /  19.6 °C 45.9 °F /  7.7 °C 29.9in /  1011.1hPa SE 2.4mph /  3.9km/h 4.6mph /  7.4km/h 46% 0in /  0.0mm FEW
12:06 67.6 °F /  19.8 °C 46 °F /  7.8 °C 29.8in /  1010.7hPa ESE 2.4mph /  3.9km/h 4mph /  6.4km/h 46% 0in /  0.0mm FEW
12:11 67.8 °F /  19.9 °C 45.7 °F /  7.6 °C 29.8in /  1010.7hPa South 2.4mph /  3.9km/h 4.6mph /  7.4km/h 45% 0in /  0.0mm FEW
12:16 68.2 °F /  20.1 °C 46 °F /  7.8 °C 29.8in /  1010.7hPa ENE 2.4mph /  3.9km/h 5.8mph /  9.3km/h 45% 0in /  0.0mm FEW
12:21 68.2 °F /  20.1 °C 46 °F /  7.8 °C 29.8in /  1010.4hPa NW 2.4mph /  3.9km/h 4.6mph /  7.4km/h 45% 0in /  0.0mm FEW
12:26 68.5 °F /  20.3 °C 46.2 °F /  7.9 °C 29.8in /  1010.4hPa SE 2.9mph /  4.7km/h 4mph /  6.4km/h 45% 0in /  0.0mm FEW
12:31 68.9 °F /  20.5 °C 46 °F /  7.8 °C 29.8in /  1010.4hPa NE 2.9mph /  4.7km/h 3.5mph /  5.6km/h 44% 0in /  0.0mm FEW
12:36 69.1 °F /  20.6 °C 45.7 °F /  7.6 °C 29.8in /  1010.0hPa ENE 2mph /  3.2km/h 2.4mph /  3.9km/h 43% 0in /  0.0mm FEW
12:41 69.3 °F /  20.7 °C 46.9 °F /  8.3 °C 29.8in /  1010.0hPa NNE 2mph /  3.2km/h 5.8mph /  9.3km/h 45% 0in /  0.0mm FEW
12:46 69.1 °F /  20.6 °C 46.8 °F /  8.2 °C 29.8in /  1010.0hPa ENE 2.4mph /  3.9km/h 4.6mph /  7.4km/h 45% 0in /  0.0mm FEW
12:51 68.7 °F /  20.4 °C 46.6 °F /  8.1 °C 29.8in /  1010.0hPa NE 2.4mph /  3.9km/h 5.8mph /  9.3km/h 45% 0in /  0.0mm FEW
12:56 68.7 °F /  20.4 °C 46.6 °F /  8.1 °C 29.8in /  1010.0hPa NW 3.1mph /  5.0km/h 3.5mph /  5.6km/h 45% 0in /  0.0mm FEW
13:01 68.7 °F /  20.4 °C 46.6 °F /  8.1 °C 29.8in /  1010.0hPa NE 3.1mph /  5.0km/h 4.6mph /  7.4km/h 45% 0in /  0.0mm FEW
13:06 69.1 °F /  20.6 °C 46.8 °F /  8.2 °C 29.8in /  1009.7hPa NE 2.9mph /  4.7km/h 5.8mph /  9.3km/h 45% 0in /  0.0mm FEW
13:11 69.1 °F /  20.6 °C 46.2 °F /  7.9 °C 29.8in /  1009.7hPa NW 2.9mph /  4.7km/h 4.6mph /  7.4km/h 44% 0in /  0.0mm FEW
13:16 69.4 °F /  20.8 °C 46.6 °F /  8.1 °C 29.8in /  1009.7hPa NNW 3.1mph /  5.0km/h 4.6mph /  7.4km/h 44% 2.52in /  64.0mm RA
13:21 69.6 °F /  20.9 °C 46.8 °F /  8.2 °C 29.8in /  1009.7hPa NW 3.1mph /  5.0km/h 4mph /  6.4km/h 44% 2.52in /  64.0mm RA
13:26 69.8 °F /  21.0 °C 46.9 °F /  8.3 °C 29.8in /  1009.7hPa NW 2.9mph /  4.7km/h 4.6mph /  7.4km/h 44% 2.52in /  64.0mm FEW
13:31 70 °F /  21.1 °C 47.1 °F /  8.4 °C 29.8in /  1009.7hPa NNE 2.9mph /  4.7km/h 4.6mph /  7.4km/h 44% 2.52in /  64.0mm FEW
13:36 70.2 °F /  21.2 °C 46.6 °F /  8.1 °C 29.8in /  1009.4hPa NW 3.1mph /  5.0km/h 5.8mph /  9.3km/h 43% 2.52in /  64.0mm FEW
13:41 70.2 °F /  21.2 °C 46.6 °F /  8.1 °C 29.8in /  1009.4hPa NW 3.1mph /  5.0km/h 3.1mph /  5.0km/h 43% 2.52in /  64.0mm FEW
13:46 70.5 °F /  21.4 °C 46.9 °F /  8.3 °C 29.8in /  1009.4hPa North 2.4mph /  3.9km/h 5.2mph /  8.4km/h 43% 2.52in /  64.0mm FEW
13:51 70.5 °F /  21.4 °C 46.9 °F /  8.3 °C 29.8in /  1009.0hPa NE 2.4mph /  3.9km/h 2.4mph /  3.9km/h 43% 2.52in /  64.0mm FEW
13:56 70.7 °F /  21.5 °C 47.1 °F /  8.4 °C 29.8in /  1009.0hPa NE 2.4mph /  3.9km/h 2.4mph /  3.9km/h 43% 2.52in /  64.0mm FEW
14:01 70.9 °F /  21.6 °C 47.3 °F /  8.5 °C 29.8in /  1009.0hPa ENE 2.4mph /  3.9km/h 2.4mph /  3.9km/h 43% 2.52in /  64.0mm FEW
14:06 71.1 °F /  21.7 °C 47.5 °F /  8.6 °C 29.8in /  1008.4hPa ESE 1.8mph /  2.9km/h 7.4mph /  11.9km/h 43% 2.52in /  64.0mm FEW
14:11 70.9 °F /  21.6 °C 47.3 °F /  8.5 °C 29.8in /  1008.4hPa ESE 1.8mph /  2.9km/h 10.4mph /  16.7km/h 43% 2.52in /  64.0mm FEW
14:16 70.5 °F /  21.4 °C 47.5 °F /  8.6 °C 29.8in /  1008.4hPa ESE 5.9mph /  9.5km/h 11.5mph /  18.5km/h 44% 0in /  0.0mm FEW
14:21 70.3 °F /  21.3 °C 48 °F /  8.9 °C 29.8in /  1008.0hPa SE 5.9mph /  9.5km/h 11.5mph /  18.5km/h 45% 0in /  0.0mm FEW
14:26 70.7 °F /  21.5 °C 47.7 °F /  8.7 °C 29.8in /  1008.0hPa SSW 6.4mph /  10.3km/h 9.2mph /  14.8km/h 44% 0in /  0.0mm FEW
14:31 70.9 °F /  21.6 °C 47.3 °F /  8.5 °C 29.8in /  1008.0hPa SSE 6.4mph /  10.3km/h 11.5mph /  18.5km/h 43% 0in /  0.0mm FEW
14:36 70.9 °F /  21.6 °C 46.6 °F /  8.1 °C 29.7in /  1007.3hPa SSE 7.4mph /  11.9km/h 15mph /  24.1km/h 42% 0in /  0.0mm FEW
14:41 70.5 °F /  21.4 °C 46.9 °F /  8.3 °C 29.7in /  1007.3hPa SSE 7.4mph /  11.9km/h 12.7mph /  20.4km/h 43% 0in /  0.0mm FEW
14:46 70.9 °F /  21.6 °C 46.6 °F /  8.1 °C 29.7in /  1007.3hPa South 9.7mph /  15.6km/h 15mph /  24.1km/h 42% 0in /  0.0mm FEW
14:51 71.1 °F /  21.7 °C 46.8 °F /  8.2 °C 29.7in /  1007.3hPa SSE 9.7mph /  15.6km/h 12.7mph /  20.4km/h 42% 0in /  0.0mm FEW
14:56 71.4 °F /  21.9 °C 47.1 °F /  8.4 °C 29.7in /  1007.3hPa SSE 8.7mph /  14.0km/h 18.4mph /  29.6km/h 42% 0in /  0.0mm FEW
15:01 71.4 °F /  21.9 °C 47.1 °F /  8.4 °C 29.7in /  1007.3hPa East 8.7mph /  14.0km/h 12.7mph /  20.4km/h 42% 0in /  0.0mm RA
15:06 71.8 °F /  22.1 °C 46.8 °F /  8.2 °C 29.7in /  1007.0hPa SE 9.2mph /  14.8km/h 13.8mph /  22.2km/h 41% 0in /  0.0mm RA
15:11 71.6 °F /  22.0 °C 46.6 °F /  8.1 °C 29.7in /  1007.0hPa SE 9.2mph /  14.8km/h 17.3mph /  27.8km/h 41% 0in /  0.0mm FEW
15:16 71.4 °F /  21.9 °C 47.1 °F /  8.4 °C 29.7in /  1007.0hPa SSE 9.2mph /  14.8km/h 16.1mph /  25.9km/h 42% 0in /  0.0mm BKN
15:21 71.6 °F /  22.0 °C 47.3 °F /  8.5 °C 29.7in /  1006.0hPa SSE 9.2mph /  14.8km/h 10.4mph /  16.7km/h 42% 0in /  0.0mm BKN
15:26 72 °F /  22.2 °C 46.9 °F /  8.3 °C 29.7in /  1006.0hPa South 8.5mph /  13.7km/h 12.5mph /  20.1km/h 41% 0in /  0.0mm BKN
15:31 71.6 °F /  22.0 °C 46.6 °F /  8.1 °C 29.7in /  1006.0hPa South 8.5mph /  13.7km/h 12.7mph /  20.4km/h 41% 0in /  0.0mm BKN
15:36 71.6 °F /  22.0 °C 47.3 °F /  8.5 °C 29.7in /  1005.6hPa ENE 8.7mph /  14.0km/h 13.8mph /  22.2km/h 42% 0in /  0.0mm BKN
15:41 71.4 °F /  21.9 °C 47.7 °F /  8.7 °C 29.7in /  1005.6hPa SSE 8.7mph /  14.0km/h 12.7mph /  20.4km/h 43% 0in /  0.0mm BKN
15:46 71.2 °F /  21.8 °C 47.7 °F /  8.7 °C 29.7in /  1005.6hPa ESE 8.5mph /  13.7km/h 17.3mph /  27.8km/h 43% 0in /  0.0mm BKN
15:51 71.1 °F /  21.7 °C 47.5 °F /  8.6 °C 29.7in /  1005.3hPa SE 8.5mph /  13.7km/h 13.8mph /  22.2km/h 43% 0in /  0.0mm BKN
15:56 71.1 °F /  21.7 °C 48 °F /  8.9 °C 29.7in /  1005.3hPa ESE 9.2mph /  14.8km/h 17.3mph /  27.8km/h 44% 0in /  0.0mm BKN
16:01 70.5 °F /  21.4 °C 47.5 °F /  8.6 °C 29.7in /  1005.3hPa ESE 9.2mph /  14.8km/h 18.4mph /  29.6km/h 44% 0in /  0.0mm BKN
16:06 70.3 °F /  21.3 °C 48.6 °F /  9.2 °C 29.7in /  1004.6hPa SE 11.8mph /  19.0km/h 11.8mph /  19.0km/h 46% 0in /  0.0mm BKN
16:11 70.3 °F /  21.3 °C 48.6 °F /  9.2 °C 29.7in /  1004.6hPa SE 11.8mph /  19.0km/h 11.8mph /  19.0km/h 46% 0in /  0.0mm BKN
16:16 70.3 °F /  21.3 °C 48.6 °F /  9.2 °C 29.7in /  1004.6hPa ESE 7.6mph /  12.2km/h 15.6mph /  25.1km/h 46% 0in /  0.0mm SCT
16:21 70.3 °F /  21.3 °C 49.1 °F /  9.5 °C 29.7in /  1004.6hPa SSW 7.6mph /  12.2km/h 11.5mph /  18.5km/h 47% 0in /  0.0mm SCT
16:26 70.7 °F /  21.5 °C 49.5 °F /  9.7 °C 29.7in /  1004.6hPa SSE 8.7mph /  14.0km/h 12.7mph /  20.4km/h 47% 0in /  0.0mm SCT
16:31 70.5 °F /  21.4 °C 49.3 °F /  9.6 °C 29.7in /  1004.6hPa SE 8.7mph /  14.0km/h 17.5mph /  28.2km/h 47% 0in /  0.0mm SCT
16:36 70.5 °F /  21.4 °C 49.3 °F /  9.6 °C 29.7in /  1004.3hPa SE 10.7mph /  17.2km/h 13.8mph /  22.2km/h 47% 0in /  0.0mm SCT
16:41 70.5 °F /  21.4 °C 49.8 °F /  9.9 °C 29.7in /  1004.3hPa ESE 10.7mph /  17.2km/h 15mph /  24.1km/h 48% 0in /  0.0mm SCT
16:46 70.3 °F /  21.3 °C 49.6 °F /  9.8 °C 29.7in /  1004.3hPa SE 9.7mph /  15.6km/h 15mph /  24.1km/h 48% 0in /  0.0mm SCT
16:51 70.2 °F /  21.2 °C 50.2 °F /  10.1 °C 29.6in /  1003.9hPa SE 9.7mph /  15.6km/h 17.3mph /  27.8km/h 49% 0in /  0.0mm SCT
16:56 70 °F /  21.1 °C 49.8 °F /  9.9 °C 29.6in /  1003.9hPa East 10.2mph /  16.4km/h 13.8mph /  22.2km/h 49% 0in /  0.0mm SCT
17:01 70.3 °F /  21.3 °C 50.4 °F /  10.2 °C 29.6in /  1003.9hPa ESE 10.2mph /  16.4km/h 10.2mph /  16.4km/h 49% 0in /  0.0mm SCT
17:06 70.5 °F /  21.4 °C 50.4 °F /  10.2 °C 29.6in /  1003.9hPa South 6.4mph /  10.3km/h 12.7mph /  20.4km/h 49% 0in /  0.0mm SCT
17:11 70.3 °F /  21.3 °C 50.4 °F /  10.2 °C 29.6in /  1003.9hPa SSE 6.4mph /  10.3km/h 13.8mph /  22.2km/h 49% 0in /  0.0mm SCT
17:16 70.2 °F /  21.2 °C 50.5 °F /  10.3 °C 29.6in /  1003.9hPa South 8.7mph /  14.0km/h 13.8mph /  22.2km/h 50% 0in /  0.0mm SCT
17:21 70 °F /  21.1 °C 50.5 °F /  10.3 °C 29.6in /  1003.9hPa SSE 8.7mph /  14.0km/h 15.6mph /  25.1km/h 50% 0in /  0.0mm SCT
17:26 69.6 °F /  20.9 °C 50.2 °F /  10.1 °C 29.6in /  1003.9hPa ESE 9.2mph /  14.8km/h 11.5mph /  18.5km/h 50% 0in /  0.0mm SCT
17:31 69.4 °F /  20.8 °C 50 °F /  10.0 °C 29.6in /  1003.9hPa South 9.2mph /  14.8km/h 10.4mph /  16.7km/h 50% 0in /  0.0mm SCT
17:36 69.6 °F /  20.9 °C 49.6 °F /  9.8 °C 29.7in /  1004.3hPa SSE 7.6mph /  12.2km/h 12.7mph /  20.4km/h 49% 0in /  0.0mm SCT
17:41 69.4 °F /  20.8 °C 50 °F /  10.0 °C 29.7in /  1004.3hPa SSE 7.6mph /  12.2km/h 13.8mph /  22.2km/h 50% 0in /  0.0mm SCT
17:46 69.4 °F /  20.8 °C 50 °F /  10.0 °C 29.7in /  1004.3hPa South 9.2mph /  14.8km/h 10.4mph /  16.7km/h 50% 0in /  0.0mm SCT
17:51 69.4 °F /  20.8 °C 50 °F /  10.0 °C 29.6in /  1003.9hPa SSE 9.2mph /  14.8km/h 13.8mph /  22.2km/h 50% 0in /  0.0mm SCT
17:56 69.4 °F /  20.8 °C 49.5 °F /  9.7 °C 29.6in /  1003.9hPa SSE 8.7mph /  14.0km/h 12.7mph /  20.4km/h 49% 0in /  0.0mm SCT
18:01 69.6 °F /  20.9 °C 48.6 °F /  9.2 °C 29.6in /  1003.9hPa SSE 8.7mph /  14.0km/h 13.8mph /  22.2km/h 47% 0in /  0.0mm SCT
18:06 69.6 °F /  20.9 °C 49.1 °F /  9.5 °C 29.6in /  1003.6hPa South 9.7mph /  15.6km/h 9.7mph /  15.6km/h 48% 0in /  0.0mm SCT
18:11 69.6 °F /  20.9 °C 49.6 °F /  9.8 °C 29.6in /  1003.6hPa SSE 9.7mph /  15.6km/h 11.5mph /  18.5km/h 49% 0in /  0.0mm SCT
18:16 69.4 °F /  20.8 °C 49.5 °F /  9.7 °C 29.6in /  1003.6hPa South 6.2mph /  10.0km/h 13.8mph /  22.2km/h 49% 0in /  0.0mm FEW
18:21 69.3 °F /  20.7 °C 49.3 °F /  9.6 °C 29.6in /  1003.6hPa SE 6.2mph /  10.0km/h 8.1mph /  13.0km/h 49% 0in /  0.0mm FEW
18:26 69.3 °F /  20.7 °C 49.8 °F /  9.9 °C 29.6in /  1003.6hPa SSE 7.6mph /  12.2km/h 12.7mph /  20.4km/h 50% 0in /  0.0mm FEW
18:31 69.1 °F /  20.6 °C 49.6 °F /  9.8 °C 29.6in /  1003.6hPa South 7.6mph /  12.2km/h 11.5mph /  18.5km/h 50% 0in /  0.0mm FEW
18:36 69.1 °F /  20.6 °C 49.6 °F /  9.8 °C 29.6in /  1003.6hPa SSE 7.6mph /  12.2km/h 12.7mph /  20.4km/h 50% 0in /  0.0mm FEW
18:41 69.1 °F /  20.6 °C 50.2 °F /  10.1 °C 29.6in /  1003.6hPa South 7.6mph /  12.2km/h 12.7mph /  20.4km/h 51% 0in /  0.0mm FEW
18:46 68.9 °F /  20.5 °C 49.5 °F /  9.7 °C 29.6in /  1003.6hPa South 9.2mph /  14.8km/h 10.4mph /  16.7km/h 50% 0in /  0.0mm FEW
18:51 68.7 °F /  20.4 °C 49.3 °F /  9.6 °C 29.6in /  1003.3hPa South 9.2mph /  14.8km/h 15mph /  24.1km/h 50% 0in /  0.0mm FEW
18:56 68.5 °F /  20.3 °C 49.6 °F /  9.8 °C 29.6in /  1003.3hPa SSE 8.5mph /  13.7km/h 12.7mph /  20.4km/h 51% 0in /  0.0mm FEW
19:01 68.4 °F /  20.2 °C 50 °F /  10.0 °C 29.6in /  1003.3hPa SW 8.5mph /  13.7km/h 12.7mph /  20.4km/h 52% 0in /  0.0mm FEW
19:06 68.2 °F /  20.1 °C 49.8 °F /  9.9 °C 29.6in /  1003.3hPa SW 7.6mph /  12.2km/h 7.6mph /  12.2km/h 52% 0in /  0.0mm FEW
19:11 68.2 °F /  20.1 °C 50.4 °F /  10.2 °C 29.6in /  1003.3hPa SSW 7.6mph /  12.2km/h 9.2mph /  14.8km/h 53% 0in /  0.0mm FEW
19:16 68 °F /  20.0 °C 50.2 °F /  10.1 °C 29.6in /  1003.3hPa SSE 4.7mph /  7.6km/h 5.8mph /  9.3km/h 53% 0in /  0.0mm BKN
19:21 67.8 °F /  19.9 °C 50.2 °F /  10.1 °C 29.6in /  1003.3hPa SSE 4.7mph /  7.6km/h 4.7mph /  7.6km/h 53% 0in /  0.0mm BKN
19:26 67.6 °F /  19.8 °C 50.9 °F /  10.5 °C 29.6in /  1003.3hPa NE 2.9mph /  4.7km/h 4.6mph /  7.4km/h 55% 0in /  0.0mm BKN
19:31 67.3 °F /  19.6 °C 51.1 °F /  10.6 °C 29.6in /  1003.3hPa NNE 2.9mph /  4.7km/h 2.9mph /  4.7km/h 56% 0in /  0.0mm BKN
19:36 66.9 °F /  19.4 °C 51.6 °F /  10.9 °C 29.6in /  1002.9hPa ESE 2.9mph /  4.7km/h 3.5mph /  5.6km/h 58% 0in /  0.0mm BKN
19:41 66.6 °F /  19.2 °C 51.8 °F /  11.0 °C 29.6in /  1002.9hPa ESE 2.9mph /  4.7km/h 5.8mph /  9.3km/h 59% 0in /  0.0mm BKN
19:46 66.2 °F /  19.0 °C 51.4 °F /  10.8 °C 29.6in /  1002.9hPa ESE 3.1mph /  5.0km/h 5.8mph /  9.3km/h 59% 0in /  0.0mm BKN
19:51 66 °F /  18.9 °C 51.6 °F /  10.9 °C 29.6in /  1003.3hPa ESE 3.1mph /  5.0km/h 4.6mph /  7.4km/h 60% 0in /  0.0mm BKN
19:56 65.8 °F /  18.8 °C 51.6 °F /  10.9 °C 29.6in /  1003.3hPa ESE 2.9mph /  4.7km/h 4.6mph /  7.4km/h 60% 0in /  0.0mm BKN
20:01 65.8 °F /  18.8 °C 51.6 °F /  10.9 °C 29.6in /  1003.3hPa ESE 2.9mph /  4.7km/h 5.8mph /  9.3km/h 60% 0in /  0.0mm BKN
20:06 65.8 °F /  18.8 °C 51.6 °F /  10.9 °C 29.6in /  1003.3hPa ESE 3.6mph /  5.8km/h 6.9mph /  11.1km/h 60% 0in /  0.0mm BKN
20:11 65.7 °F /  18.7 °C 51.4 °F /  10.8 °C 29.6in /  1003.3hPa SE 3.6mph /  5.8km/h 5.4mph /  8.7km/h 60% 0in /  0.0mm BKN
20:16 65.5 °F /  18.6 °C 51.6 °F /  10.9 °C 29.6in /  1003.3hPa SE 4mph /  6.4km/h 6.9mph /  11.1km/h 61% 0in /  0.0mm FEW
20:21 64.9 °F /  18.3 °C 51.6 °F /  10.9 °C 29.6in /  1003.3hPa SSE 4mph /  6.4km/h 6.9mph /  11.1km/h 62% 0in /  0.0mm FEW
20:26 65.1 °F /  18.4 °C 50.9 °F /  10.5 °C 29.6in /  1003.3hPa WSW 4.7mph /  7.6km/h 10.4mph /  16.7km/h 60% 0in /  0.0mm FEW
20:31 65.8 °F /  18.8 °C 51.1 °F /  10.6 °C 29.6in /  1003.3hPa SW 4.7mph /  7.6km/h 13.8mph /  22.2km/h 59% 0in /  0.0mm FEW
20:36 66 °F /  18.9 °C 51.3 °F /  10.7 °C 29.6in /  1002.9hPa SW 8.1mph /  13.0km/h 17.3mph /  27.8km/h 59% 0in /  0.0mm FEW
20:41 66 °F /  18.9 °C 50.4 °F /  10.2 °C 29.6in /  1002.9hPa SW 8.1mph /  13.0km/h 16.1mph /  25.9km/h 57% 0in /  0.0mm FEW
20:46 66.9 °F /  19.4 °C 49.6 °F /  9.8 °C 29.6in /  1002.9hPa West 10.7mph /  17.2km/h 15mph /  24.1km/h 54% 0in /  0.0mm FEW
20:51 67.5 °F /  19.7 °C 49.3 °F /  9.6 °C 29.6in /  1002.9hPa WSW 10.7mph /  17.2km/h 17.3mph /  27.8km/h 52% 0in /  0.0mm FEW
20:56 68.2 °F /  20.1 °C 49.8 °F /  9.9 °C 29.6in /  1002.9hPa SSW 10.2mph /  16.4km/h 15mph /  24.1km/h 52% 0in /  0.0mm FEW
21:01 67.5 °F /  19.7 °C 50.2 °F /  10.1 °C 29.6in /  1002.9hPa WSW 10.2mph /  16.4km/h 12.7mph /  20.4km/h 54% 0in /  0.0mm FEW
21:06 66.9 °F /  19.4 °C 50.7 °F /  10.4 °C 29.6in /  1002.9hPa SW 8.5mph /  13.7km/h 15mph /  24.1km/h 56% 0in /  0.0mm FEW
21:11 66.2 °F /  19.0 °C 50.5 °F /  10.3 °C 29.6in /  1002.9hPa South 8.5mph /  13.7km/h 11.5mph /  18.5km/h 57% 0in /  0.0mm FEW
21:16 65.7 °F /  18.7 °C 50.5 °F /  10.3 °C 29.6in /  1002.9hPa SW 9.2mph /  14.8km/h 13.8mph /  22.2km/h 58% 0in /  0.0mm BKN
21:21 65.5 °F /  18.6 °C 50.7 °F /  10.4 °C 29.6in /  1002.9hPa SSW 9.2mph /  14.8km/h 13.8mph /  22.2km/h 59% 0in /  0.0mm BKN
21:26 65.5 °F /  18.6 °C 50.7 °F /  10.4 °C 29.6in /  1002.9hPa South 7.6mph /  12.2km/h 8.7mph /  14.0km/h 59% 0in /  0.0mm BKN
21:31 65.5 °F /  18.6 °C 50.4 °F /  10.2 °C 29.6in /  1002.9hPa SW 7.6mph /  12.2km/h 7.6mph /  12.2km/h 58% 0in /  0.0mm BKN
21:36 65.7 °F /  18.7 °C 50 °F /  10.0 °C 29.6in /  1002.9hPa SW 6.4mph /  10.3km/h 8.1mph /  13.0km/h 57% 0in /  0.0mm BKN
21:41 65.8 °F /  18.8 °C 49.6 °F /  9.8 °C 29.6in /  1002.9hPa SSW 6.4mph /  10.3km/h 10.4mph /  16.7km/h 56% 0in /  0.0mm BKN
21:46 66 °F /  18.9 °C 49.5 °F /  9.7 °C 29.6in /  1002.9hPa SW 6.9mph /  11.1km/h 12.7mph /  20.4km/h 55% 0in /  0.0mm BKN
21:51 66.2 °F /  19.0 °C 49.1 °F /  9.5 °C 29.6in /  1002.3hPa South 6.9mph /  11.1km/h 10.4mph /  16.7km/h 54% 0in /  0.0mm BKN
21:56 66.4 °F /  19.1 °C 48.7 °F /  9.3 °C 29.6in /  1002.3hPa South 8.5mph /  13.7km/h 10.4mph /  16.7km/h 53% 0in /  0.0mm BKN
22:01 66.6 °F /  19.2 °C 47.8 °F /  8.8 °C 29.6in /  1002.3hPa SW 8.5mph /  13.7km/h 12.7mph /  20.4km/h 51% 0in /  0.0mm BKN
22:06 66.7 °F /  19.3 °C 47.5 °F /  8.6 °C 29.6in /  1002.3hPa SW 8.5mph /  13.7km/h 12.3mph /  19.8km/h 50% 0in /  0.0mm BKN
22:11 66.9 °F /  19.4 °C 47.7 °F /  8.7 °C 29.6in /  1002.3hPa SSW 8.5mph /  13.7km/h 13.8mph /  22.2km/h 50% 0in /  0.0mm BKN
22:16 66.9 °F /  19.4 °C 47.1 °F /  8.4 °C 29.6in /  1002.3hPa SW 9.7mph /  15.6km/h 12.7mph /  20.4km/h 49% 0in /  0.0mm BKN
22:21 67.1 °F /  19.5 °C 46.8 °F /  8.2 °C 29.6in /  1001.9hPa SW 9.7mph /  15.6km/h 11.5mph /  18.5km/h 48% 0in /  0.0mm BKN
22:26 67.3 °F /  19.6 °C 46.9 °F /  8.3 °C 29.6in /  1001.9hPa SW 8.5mph /  13.7km/h 13.8mph /  22.2km/h 48% 0in /  0.0mm BKN
22:31 67.3 °F /  19.6 °C 46.9 °F /  8.3 °C 29.6in /  1001.9hPa WSW 8.5mph /  13.7km/h 13mph /  20.9km/h 48% 0in /  0.0mm BKN
22:36 67.3 °F /  19.6 °C 47.5 °F /  8.6 °C 29.6in /  1002.3hPa SSW 9.7mph /  15.6km/h 16.1mph /  25.9km/h 49% 0in /  0.0mm BKN
22:41 66.9 °F /  19.4 °C 47.1 °F /  8.4 °C 29.6in /  1002.3hPa SSW 9.7mph /  15.6km/h 17.3mph /  27.8km/h 49% 0in /  0.0mm BKN
22:46 67.5 °F /  19.7 °C 45.3 °F /  7.4 °C 29.6in /  1002.3hPa SW 10.2mph /  16.4km/h 21.9mph /  35.2km/h 45% 0in /  0.0mm BKN
22:51 68.4 °F /  20.2 °C 46.2 °F /  7.9 °C 29.6in /  1002.3hPa SSE 10.2mph /  16.4km/h 15mph /  24.1km/h 45% 0in /  0.0mm BKN
22:56 68.2 °F /  20.1 °C 46.6 °F /  8.1 °C 29.6in /  1002.3hPa SW 11.2mph /  18.0km/h 11.2mph /  18.0km/h 46% 0in /  0.0mm BKN
23:01 67.5 °F /  19.7 °C 46.6 °F /  8.1 °C 29.6in /  1002.3hPa SW 11.2mph /  18.0km/h 16.1mph /  25.9km/h 47% 0in /  0.0mm BKN
23:06 67.3 °F /  19.6 °C 46.4 °F /  8.0 °C 29.6in /  1002.3hPa WSW 8.5mph /  13.7km/h 11.5mph /  18.5km/h 47% 0in /  0.0mm BKN
23:11 67.3 °F /  19.6 °C 46.9 °F /  8.3 °C 29.6in /  1002.3hPa SSW 8.5mph /  13.7km/h 10.4mph /  16.7km/h 48% 0in /  0.0mm BKN
23:16 66.9 °F /  19.4 °C 46.6 °F /  8.1 °C 29.6in /  1002.3hPa SSE 5.9mph /  9.5km/h 8.7mph /  14.0km/h 48% 0in /  0.0mm BKN
23:21 66.7 °F /  19.3 °C 46.4 °F /  8.0 °C 29.6in /  1001.9hPa South 5.9mph /  9.5km/h 7.4mph /  11.9km/h 48% 0in /  0.0mm BKN
23:26 66.7 °F /  19.3 °C 46.4 °F /  8.0 °C 29.6in /  1001.9hPa South 5.9mph /  9.5km/h 5.9mph /  9.5km/h 48% 0in /  0.0mm BKN
23:31 66.7 °F /  19.3 °C 46.4 °F /  8.0 °C 29.6in /  1001.9hPa SSW 5.9mph /  9.5km/h 5.9mph /  9.5km/h 48% 0in /  0.0mm BKN
23:36 66.7 °F /  19.3 °C 45.9 °F /  7.7 °C 29.6in /  1001.9hPa SW 3.6mph /  5.8km/h 5.8mph /  9.3km/h 47% 0in /  0.0mm BKN
23:41 66.9 °F /  19.4 °C 45.5 °F /  7.5 °C 29.6in /  1001.9hPa SW 3.6mph /  5.8km/h 5.8mph /  9.3km/h 46% 0in /  0.0mm BKN
23:46 67.3 °F /  19.6 °C 45.1 °F /  7.3 °C 29.6in /  1001.9hPa SW 4.3mph /  6.9km/h 5.8mph /  9.3km/h 45% 0in /  0.0mm BKN
23:51 67.3 °F /  19.6 °C 45.1 °F /  7.3 °C 29.6in /  1001.6hPa SW 4.3mph /  6.9km/h 4.3mph /  6.9km/h 45% 0in /  0.0mm BKN
23:56 67.5 °F /  19.7 °C 44.2 °F /  6.8 °C 29.6in /  1001.6hPa SW 3.1mph /  5.0km/h 10.4mph /  16.7km/h 43% 0in /  0.0mm BKN
Murcia-Puente Tocinos, España
Compliments of Weather Underground - 2.75 mb

La estación de MeteoMurcia.com, publica sus datos en los siguientes proyectos:

Meteoclimatic www.awekas.at

W3Counter
Web Analytics